Custom Search

Airport METAR Reports

 

YMAV - Avalon Airport, Australia
Distance from station: 0 0km
Updated: 24/04/2017 03:30
Overcast
Overcast
 Wind from SW
Wind: SW 9 km/h
Temperature: 15°C
Dew Point: 15°C
Humidity: 100%
Barometer: 1021 hPa
Clouds: Overcast
Visibility: 10 km
Cloud details: Partly cloudy 762 m
Mostly cloudy 2012 m
Overcast 2865 m
2017/04/23 17:30 YMAV 231730Z AUTO 23005KT 9999 // SCT025 BKN066 OVC094 15/15 Q1021
YMML - Melbourne Intl A, Australia
Distance from station: NE 50km
Updated: 24/04/2017 03:30
Mostly cloudy
Mostly cloudy
 Wind from calm
Wind: Calm
Temperature: 15°C
Dew Point: 15°C
Humidity: 100%
Barometer: 1021 hPa
Clouds: Mostly cloudy
Visibility: 10 km
Cloud details: Mostly cloudy 213 m
Mostly cloudy 2134 m
2017/04/23 17:30 YMML 231730Z 00000KT 9999 BKN007 BKN070 15/15 Q1021 NOSIG
YMEN - Melbourne/Essend, Australia
Distance from station: NE 51km
Updated: 24/04/2017 03:30
Overcast
Overcast
 Wind from calm
Wind: Calm
Temperature: 16°C
Dew Point: 16°C
Humidity: 100%
Barometer: 1020 hPa
Clouds: Overcast
Visibility: 10 km
Cloud details: Mostly cloudy 457 m
Overcast 579 m
2017/04/23 17:30 YMEN 231730Z AUTO 00000KT 9999 // BKN015 OVC019 16/16 Q1020
 
YWGT - Wangaratta Arp, Australia
Distance from station: NE 241km
Updated: 24/04/2017 03:50
Partly cloudy
Partly cloudy
 Wind from calm
Wind: Calm
Temperature: 10°C
Dew Point: 10°C
Humidity: 100%
Barometer: 1021 hPa
Clouds: Partly cloudy
Visibility: 8 km
Cloud details: Partly cloudy 61 m
2017/04/23 17:50 YWGT 231750Z AUTO 00000KT 8000 // SCT002 10/10 Q1021
YMAY - Albury Airport, Australia
Distance from station: NE 308km
Updated: 24/04/2017 03:00
Clear
Clear
 Wind from calm
Wind: Calm
Temperature: 12°C
Dew Point: 12°C
Humidity: 100%
Barometer: 1021 hPa
Clouds: Clear
Visibility: 10 km
2017/04/23 17:00 YMAY 231700Z AUTO 00000KT 9999 // NCD 12/12 Q1021
YMTG - Mount Gambier, Australia
Distance from station: W 326km
Updated: 24/04/2017 03:30
Overcast
Overcast
 Wind from ESE
Wind: ESE 9 km/h
Temperature: 13°C
Dew Point: 12°C
Humidity: 94%
Barometer: 1020 hPa
Clouds: Overcast
Visibility: 10 km
Cloud details: Overcast 305 m
2017/04/23 17:30 YMTG 231730Z AUTO 11005KT 9999 // OVC010 13/12 Q1020
 
YNAR - Narrandera, Australia
Distance from station: NNE 413km
Updated: 24/04/2017 03:00

 Wind from ESE
Wind: ESE 6 km/h
Temperature: 13°C
Dew Point: 12°C
Humidity: 94%
Barometer: 1020 hPa
2017/04/23 17:00 YNAR 231700Z AUTO 12003KT //// // ////// 13/12 Q1020
YSWG - Wagga Wagga(Cv/M, Australia
Distance from station: NE 418km
Updated: 24/04/2017 03:00
Clear
Clear
 Wind from ESE
Wind: ESE 7 km/h
Temperature: 13°C
Dew Point: 11°C
Humidity: 88%
Barometer: 1021 hPa
Clouds: Clear
Visibility: 10 km
2017/04/23 17:00 YSWG 231700Z AUTO 11004KT 9999 // NCD 13/11 Q1021
YCOM - Cooma Snowy Mtns, Australia
Distance from station: ENE 441km
Updated: 24/04/2017 03:30
Overcast
Overcast
 Wind from calm
Wind: Calm
Temperature: 8°C
Dew Point: 8°C
Humidity: 100%
Barometer: 1023 hPa
Clouds: Overcast
Visibility: 0 km
Cloud details: Overcast 61 m
2017/04/23 17:30 YCOM 231730Z AUTO 00000KT 0350 // OVC002 08/08 Q1023
 
YGTH - Griffith Arpt, Australia
Distance from station: NNE 444km
Updated: 24/04/2017 03:00
Clear
Clear
 Wind from NNE
Wind: NNE 9 km/h
Temperature: 16°C
Dew Point: 12°C
Humidity: 77%
Barometer: 1020 hPa
Clouds: Clear
Visibility: 10 km
2017/04/23 17:00 YGTH 231700Z AUTO 03005KT 340V080 9999 // NCD 16/12 Q1020
YMLT - Launceston Airpo, Australia
Distance from station: SSE 451km
Updated: 24/04/2017 03:30
Overcast
Overcast
 Wind from S
Wind: S 9 km/h
Temperature: 12°C
Dew Point: 11°C
Humidity: 94%
Barometer: 1021 hPa
Clouds: Overcast
Visibility: 10 km
Cloud details: Overcast 1829 m
2017/04/23 17:30 YMLT 231730Z AUTO 19005KT 9999 // OVC060 12/11 Q1021 RF00.0/002.2
YMIA - Mildura Arpt, Australia
Distance from station: NNW 474km
Updated: 24/04/2017 03:00
Clear
Clear
 Wind from SSW
Wind: SSW 9 km/h
Temperature: 15°C
Dew Point: 14°C
Humidity: 94%
Barometer: 1019 hPa
Clouds: Clear
Visibility: 10 km
2017/04/23 17:00 YMIA 231700Z AUTO 20005KT 9999 // NCD 15/14 Q1019
 
YMER - Merimbula Arpt, Australia
Distance from station: ENE 494km
Updated: 24/04/2017 03:31
Clear
Clear
 Wind from SSW
Wind: SSW 2 km/h
Temperature: 13°C
Dew Point: 12°C
Humidity: 94%
Barometer: 1021 hPa
Clouds: Clear
Visibility: 5 km
2017/04/23 17:31 YMER 231731Z AUTO 21001KT 5000 // NCD 13/12 Q1021
YSCB - Canberra (civ/Mi, Australia
Distance from station: NE 518km
Updated: 24/04/2017 03:30
Clear
Clear
 Wind from N
Wind: N 6 km/h
Temperature: 10°C
Dew Point: 10°C
Humidity: 100%
Barometer: 1023 hPa
Clouds: Clear
Visibility: 10 km
2017/04/23 17:30 YSCB 231730Z AUTO 36003KT 9999 // NCD 10/10 Q1023
YMHB - Hobart/Tasmania, Australia
Distance from station: SSE 590km
Updated: 24/04/2017 03:00
Overcast
Overcast
 Wind from calm
Wind: Calm
Temperature: 13°C
Dew Point: 10°C
Humidity: 82%
Barometer: 1023 hPa
Clouds: Overcast
Visibility: 10 km
Cloud details: Overcast 1036 m
2017/04/23 17:00 YMHB 231700Z AUTO 00000KT 9999 // OVC034 13/10 Q1023